sensor_id;sensor_type;location;lat;lon;timestamp;P1;durP1;ratioP1;P2;durP2;ratioP2
61696;SDS011;47610;52.252;20.922;2022-08-19T00:01:30;9.50;;;6.60;;
61696;SDS011;47610;52.252;20.922;2022-08-19T00:04:17;7.90;;;6.10;;
61696;SDS011;47610;52.252;20.922;2022-08-19T00:07:04;10.20;;;6.00;;
61696;SDS011;47610;52.252;20.922;2022-08-19T00:09:51;9.80;;;6.30;;
61696;SDS011;47610;52.252;20.922;2022-08-19T00:12:36;10.70;;;6.60;;
61696;SDS011;47610;52.252;20.922;2022-08-19T00:15:22;9.30;;;6.30;;
61696;SDS011;47610;52.252;20.922;2022-08-19T00:18:07;11.30;;;6.20;;
61696;SDS011;47610;52.252;20.922;2022-08-19T00:20:53;14.60;;;6.50;;
61696;SDS011;47610;52.252;20.922;2022-08-19T00:23:39;12.50;;;6.80;;
61696;SDS011;47610;52.252;20.922;2022-08-19T00:26:25;14.70;;;7.10;;
61696;SDS011;47610;52.252;20.922;2022-08-19T00:29:11;7.90;;;6.80;;
61696;SDS011;47610;52.252;20.922;2022-08-19T00:31:57;11.60;;;6.90;;
61696;SDS011;47610;52.252;20.922;2022-08-19T00:34:42;11.80;;;6.30;;
61696;SDS011;47610;52.252;20.922;2022-08-19T00:37:28;13.50;;;6.90;;
61696;SDS011;47610;52.252;20.922;2022-08-19T00:40:13;11.50;;;6.90;;
61696;SDS011;47610;52.252;20.922;2022-08-19T00:43:00;12.50;;;6.60;;
61696;SDS011;47610;52.252;20.922;2022-08-19T00:45:46;10.10;;;6.60;;
61696;SDS011;47610;52.252;20.922;2022-08-19T00:48:31;9.10;;;7.00;;
61696;SDS011;47610;52.252;20.922;2022-08-19T00:51:17;9.00;;;6.80;;
61696;SDS011;47610;52.252;20.922;2022-08-19T00:54:03;13.10;;;7.30;;
61696;SDS011;47610;52.252;20.922;2022-08-19T00:56:49;10.50;;;6.80;;
61696;SDS011;47610;52.252;20.922;2022-08-19T00:59:35;16.20;;;7.30;;
61696;SDS011;47610;52.252;20.922;2022-08-19T01:02:22;8.40;;;6.40;;
61696;SDS011;47610;52.252;20.922;2022-08-19T01:05:09;13.90;;;6.80;;
61696;SDS011;47610;52.252;20.922;2022-08-19T01:07:56;10.70;;;6.60;;
61696;SDS011;47610;52.252;20.922;2022-08-19T01:10:44;8.60;;;6.70;;
61696;SDS011;47610;52.252;20.922;2022-08-19T01:13:30;15.10;;;7.00;;
61696;SDS011;47610;52.252;20.922;2022-08-19T01:16:17;10.00;;;6.80;;
61696;SDS011;47610;52.252;20.922;2022-08-19T01:19:03;13.30;;;7.10;;
61696;SDS011;47610;52.252;20.922;2022-08-19T01:21:55;13.40;;;7.10;;
61696;SDS011;47610;52.252;20.922;2022-08-19T01:24:43;10.90;;;7.50;;
61696;SDS011;47610;52.252;20.922;2022-08-19T01:27:28;15.60;;;6.70;;
61696;SDS011;47610;52.252;20.922;2022-08-19T01:30:23;14.60;;;7.50;;
61696;SDS011;47610;52.252;20.922;2022-08-19T01:33:09;12.50;;;7.20;;
61696;SDS011;47610;52.252;20.922;2022-08-19T01:35:54;15.10;;;6.70;;
61696;SDS011;47610;52.252;20.922;2022-08-19T01:38:49;11.60;;;6.90;;
61696;SDS011;47610;52.252;20.922;2022-08-19T01:41:34;11.90;;;7.80;;
61696;SDS011;47610;52.252;20.922;2022-08-19T01:44:22;12.10;;;8.10;;
61696;SDS011;47610;52.252;20.922;2022-08-19T01:47:07;13.10;;;7.80;;
61696;SDS011;47610;52.252;20.922;2022-08-19T01:49:53;15.60;;;8.10;;
61696;SDS011;47610;52.252;20.922;2022-08-19T01:52:39;14.80;;;8.10;;
61696;SDS011;47610;52.252;20.922;2022-08-19T01:55:25;11.50;;;8.00;;
61696;SDS011;47610;52.252;20.922;2022-08-19T01:58:12;17.40;;;8.30;;
61696;SDS011;47610;52.252;20.922;2022-08-19T02:00:58;19.90;;;8.50;;
61696;SDS011;47610;52.252;20.922;2022-08-19T02:03:44;14.90;;;8.20;;
61696;SDS011;47610;52.252;20.922;2022-08-19T02:06:29;12.70;;;8.20;;
61696;SDS011;47610;52.252;20.922;2022-08-19T02:09:14;12.00;;;8.00;;
61696;SDS011;47610;52.252;20.922;2022-08-19T02:12:00;13.90;;;7.30;;
61696;SDS011;47610;52.252;20.922;2022-08-19T02:14:49;12.20;;;7.30;;
61696;SDS011;47610;52.252;20.922;2022-08-19T02:17:34;12.30;;;7.90;;
61696;SDS011;47610;52.252;20.922;2022-08-19T02:20:20;12.10;;;7.50;;
61696;SDS011;47610;52.252;20.922;2022-08-19T02:23:06;17.70;;;8.00;;
61696;SDS011;47610;52.252;20.922;2022-08-19T02:25:52;10.70;;;7.60;;
61696;SDS011;47610;52.252;20.922;2022-08-19T02:28:38;12.10;;;8.90;;
61696;SDS011;47610;52.252;20.922;2022-08-19T02:31:24;10.60;;;7.40;;
61696;SDS011;47610;52.252;20.922;2022-08-19T02:34:09;12.50;;;7.70;;
61696;SDS011;47610;52.252;20.922;2022-08-19T02:36:57;10.80;;;6.90;;
61696;SDS011;47610;52.252;20.922;2022-08-19T02:39:42;12.20;;;7.50;;
61696;SDS011;47610;52.252;20.922;2022-08-19T02:42:28;13.80;;;7.80;;
61696;SDS011;47610;52.252;20.922;2022-08-19T02:45:13;13.20;;;8.00;;
61696;SDS011;47610;52.252;20.922;2022-08-19T02:48:00;17.20;;;8.50;;
61696;SDS011;47610;52.252;20.922;2022-08-19T02:50:46;16.20;;;8.20;;
61696;SDS011;47610;52.252;20.922;2022-08-19T02:53:31;12.20;;;8.90;;
61696;SDS011;47610;52.252;20.922;2022-08-19T02:56:18;11.80;;;7.90;;
61696;SDS011;47610;52.252;20.922;2022-08-19T02:59:04;10.40;;;8.20;;
61696;SDS011;47610;52.252;20.922;2022-08-19T03:01:50;11.40;;;8.10;;
61696;SDS011;47610;52.252;20.922;2022-08-19T03:04:36;12.70;;;8.50;;
61696;SDS011;47610;52.252;20.922;2022-08-19T03:07:22;17.80;;;8.40;;
61696;SDS011;47610;52.252;20.922;2022-08-19T03:10:08;17.20;;;7.90;;
61696;SDS011;47610;52.252;20.922;2022-08-19T03:12:54;14.90;;;8.50;;
61696;SDS011;47610;52.252;20.922;2022-08-19T03:15:43;12.00;;;7.90;;
61696;SDS011;47610;52.252;20.922;2022-08-19T03:18:28;10.80;;;8.20;;
61696;SDS011;47610;52.252;20.922;2022-08-19T03:21:16;14.10;;;8.10;;
61696;SDS011;47610;52.252;20.922;2022-08-19T03:24:04;10.00;;;8.30;;
61696;SDS011;47610;52.252;20.922;2022-08-19T03:26:50;13.80;;;8.20;;
61696;SDS011;47610;52.252;20.922;2022-08-19T03:29:37;15.10;;;8.40;;
61696;SDS011;47610;52.252;20.922;2022-08-19T03:32:23;12.20;;;8.10;;
61696;SDS011;47610;52.252;20.922;2022-08-19T03:35:08;13.10;;;8.90;;
61696;SDS011;47610;52.252;20.922;2022-08-19T03:37:54;11.70;;;7.80;;
61696;SDS011;47610;52.252;20.922;2022-08-19T03:40:40;12.50;;;7.60;;
61696;SDS011;47610;52.252;20.922;2022-08-19T03:43:26;10.60;;;7.40;;
61696;SDS011;47610;52.252;20.922;2022-08-19T03:46:12;15.90;;;7.90;;
61696;SDS011;47610;52.252;20.922;2022-08-19T03:48:59;13.20;;;7.50;;
61696;SDS011;47610;52.252;20.922;2022-08-19T03:51:46;10.40;;;8.30;;
61696;SDS011;47610;52.252;20.922;2022-08-19T03:54:33;14.00;;;8.00;;
61696;SDS011;47610;52.252;20.922;2022-08-19T03:57:21;10.00;;;7.40;;
61696;SDS011;47610;52.252;20.922;2022-08-19T04:00:08;13.30;;;8.50;;
61696;SDS011;47610;52.252;20.922;2022-08-19T04:02:53;15.10;;;8.00;;
61696;SDS011;47610;52.252;20.922;2022-08-19T04:05:39;15.60;;;8.10;;
61696;SDS011;47610;52.252;20.922;2022-08-19T04:08:24;18.30;;;8.60;;
61696;SDS011;47610;52.252;20.922;2022-08-19T04:11:10;11.60;;;8.00;;
61696;SDS011;47610;52.252;20.922;2022-08-19T04:13:58;9.50;;;7.70;;
61696;SDS011;47610;52.252;20.922;2022-08-19T04:16:45;14.40;;;8.40;;
61696;SDS011;47610;52.252;20.922;2022-08-19T04:19:30;11.50;;;7.80;;
61696;SDS011;47610;52.252;20.922;2022-08-19T04:22:17;15.80;;;8.40;;
61696;SDS011;47610;52.252;20.922;2022-08-19T04:25:03;13.90;;;7.50;;
61696;SDS011;47610;52.252;20.922;2022-08-19T04:27:48;12.90;;;7.60;;
61696;SDS011;47610;52.252;20.922;2022-08-19T04:30:42;16.30;;;7.60;;
61696;SDS011;47610;52.252;20.922;2022-08-19T04:33:28;15.60;;;7.20;;
61696;SDS011;47610;52.252;20.922;2022-08-19T04:36:17;11.90;;;7.20;;
61696;SDS011;47610;52.252;20.922;2022-08-19T04:39:04;13.90;;;7.10;;
61696;SDS011;47610;52.252;20.922;2022-08-19T04:41:50;12.10;;;7.40;;
61696;SDS011;47610;52.252;20.922;2022-08-19T04:44:36;12.30;;;7.20;;
61696;SDS011;47610;52.252;20.922;2022-08-19T04:47:23;10.20;;;6.70;;
61696;SDS011;47610;52.252;20.922;2022-08-19T04:50:10;18.70;;;11.20;;
61696;SDS011;47610;52.252;20.922;2022-08-19T04:52:56;19.50;;;9.00;;
61696;SDS011;47610;52.252;20.922;2022-08-19T04:55:41;10.80;;;6.10;;
61696;SDS011;47610;52.252;20.922;2022-08-19T04:58:28;14.10;;;6.40;;
61696;SDS011;47610;52.252;20.922;2022-08-19T05:01:14;8.50;;;6.00;;
61696;SDS011;47610;52.252;20.922;2022-08-19T05:03:59;13.20;;;5.60;;
61696;SDS011;47610;52.252;20.922;2022-08-19T05:06:46;12.10;;;6.20;;
61696;SDS011;47610;52.252;20.922;2022-08-19T05:09:32;13.90;;;5.90;;
61696;SDS011;47610;52.252;20.922;2022-08-19T05:12:17;10.30;;;6.70;;
61696;SDS011;47610;52.252;20.922;2022-08-19T05:15:03;9.90;;;6.40;;
61696;SDS011;47610;52.252;20.922;2022-08-19T05:17:50;16.00;;;6.30;;
61696;SDS011;47610;52.252;20.922;2022-08-19T05:20:35;14.00;;;7.80;;
61696;SDS011;47610;52.252;20.922;2022-08-19T05:23:22;13.50;;;9.50;;
61696;SDS011;47610;52.252;20.922;2022-08-19T05:26:08;12.70;;;7.20;;
61696;SDS011;47610;52.252;20.922;2022-08-19T05:28:53;10.60;;;6.90;;
61696;SDS011;47610;52.252;20.922;2022-08-19T05:31:39;16.90;;;6.50;;
61696;SDS011;47610;52.252;20.922;2022-08-19T05:34:26;13.00;;;7.00;;
61696;SDS011;47610;52.252;20.922;2022-08-19T05:37:12;11.50;;;6.90;;
61696;SDS011;47610;52.252;20.922;2022-08-19T05:39:58;11.90;;;6.40;;
61696;SDS011;47610;52.252;20.922;2022-08-19T05:42:44;17.30;;;7.20;;
61696;SDS011;47610;52.252;20.922;2022-08-19T05:45:29;13.30;;;6.70;;
61696;SDS011;47610;52.252;20.922;2022-08-19T05:48:14;13.60;;;6.70;;
61696;SDS011;47610;52.252;20.922;2022-08-19T05:51:02;19.90;;;10.10;;
61696;SDS011;47610;52.252;20.922;2022-08-19T05:53:48;14.20;;;6.60;;
61696;SDS011;47610;52.252;20.922;2022-08-19T05:56:33;7.90;;;6.60;;
61696;SDS011;47610;52.252;20.922;2022-08-19T05:59:20;13.40;;;7.40;;
61696;SDS011;47610;52.252;20.922;2022-08-19T06:02:07;11.60;;;6.20;;
61696;SDS011;47610;52.252;20.922;2022-08-19T06:04:53;10.00;;;7.00;;
61696;SDS011;47610;52.252;20.922;2022-08-19T06:07:39;16.30;;;6.60;;
61696;SDS011;47610;52.252;20.922;2022-08-19T06:10:26;29.60;;;14.60;;
61696;SDS011;47610;52.252;20.922;2022-08-19T06:13:12;11.10;;;7.00;;
61696;SDS011;47610;52.252;20.922;2022-08-19T06:15:57;12.30;;;6.30;;
61696;SDS011;47610;52.252;20.922;2022-08-19T06:18:43;13.60;;;6.50;;
61696;SDS011;47610;52.252;20.922;2022-08-19T06:21:29;15.90;;;6.10;;
61696;SDS011;47610;52.252;20.922;2022-08-19T06:24:15;9.20;;;6.30;;
61696;SDS011;47610;52.252;20.922;2022-08-19T06:27:02;14.70;;;6.30;;
61696;SDS011;47610;52.252;20.922;2022-08-19T06:29:48;11.40;;;6.00;;
61696;SDS011;47610;52.252;20.922;2022-08-19T06:32:34;9.70;;;6.10;;
61696;SDS011;47610;52.252;20.922;2022-08-19T06:35:20;14.00;;;6.30;;
61696;SDS011;47610;52.252;20.922;2022-08-19T06:38:05;13.00;;;6.40;;
61696;SDS011;47610;52.252;20.922;2022-08-19T06:40:52;15.00;;;8.80;;
61696;SDS011;47610;52.252;20.922;2022-08-19T06:43:44;13.70;;;8.10;;
61696;SDS011;47610;52.252;20.922;2022-08-19T06:46:29;14.40;;;6.30;;
61696;SDS011;47610;52.252;20.922;2022-08-19T06:49:15;11.60;;;5.90;;
61696;SDS011;47610;52.252;20.922;2022-08-19T06:52:03;12.90;;;6.70;;
61696;SDS011;47610;52.252;20.922;2022-08-19T06:54:49;8.60;;;6.40;;
61696;SDS011;47610;52.252;20.922;2022-08-19T06:57:34;13.10;;;7.10;;
61696;SDS011;47610;52.252;20.922;2022-08-19T07:00:19;10.40;;;6.30;;
61696;SDS011;47610;52.252;20.922;2022-08-19T07:03:07;13.80;;;7.00;;
61696;SDS011;47610;52.252;20.922;2022-08-19T07:05:52;12.80;;;6.70;;
61696;SDS011;47610;52.252;20.922;2022-08-19T07:08:38;18.80;;;6.70;;
61696;SDS011;47610;52.252;20.922;2022-08-19T07:11:24;12.50;;;6.50;;
61696;SDS011;47610;52.252;20.922;2022-08-19T07:14:09;13.00;;;6.50;;
61696;SDS011;47610;52.252;20.922;2022-08-19T07:16:55;11.60;;;6.60;;
61696;SDS011;47610;52.252;20.922;2022-08-19T07:19:41;12.50;;;6.30;;
61696;SDS011;47610;52.252;20.922;2022-08-19T07:22:27;9.50;;;6.10;;
61696;SDS011;47610;52.252;20.922;2022-08-19T07:25:13;9.20;;;6.20;;
61696;SDS011;47610;52.252;20.922;2022-08-19T07:27:58;10.10;;;5.90;;
61696;SDS011;47610;52.252;20.922;2022-08-19T07:30:44;9.80;;;5.70;;
61696;SDS011;47610;52.252;20.922;2022-08-19T07:33:30;9.90;;;6.30;;
61696;SDS011;47610;52.252;20.922;2022-08-19T07:36:16;12.50;;;6.70;;
61696;SDS011;47610;52.252;20.922;2022-08-19T07:39:04;12.00;;;6.70;;
61696;SDS011;47610;52.252;20.922;2022-08-19T07:41:50;15.00;;;7.60;;
61696;SDS011;47610;52.252;20.922;2022-08-19T07:44:36;12.40;;;6.10;;
61696;SDS011;47610;52.252;20.922;2022-08-19T07:47:22;12.30;;;5.60;;
61696;SDS011;47610;52.252;20.922;2022-08-19T07:50:08;9.70;;;5.90;;
61696;SDS011;47610;52.252;20.922;2022-08-19T07:52:55;11.50;;;5.60;;
61696;SDS011;47610;52.252;20.922;2022-08-19T07:55:40;15.30;;;5.60;;
61696;SDS011;47610;52.252;20.922;2022-08-19T07:58:25;8.00;;;5.40;;
61696;SDS011;47610;52.252;20.922;2022-08-19T08:01:12;18.20;;;5.90;;
61696;SDS011;47610;52.252;20.922;2022-08-19T08:03:58;10.00;;;5.70;;
61696;SDS011;47610;52.252;20.922;2022-08-19T08:06:43;11.20;;;5.80;;
61696;SDS011;47610;52.252;20.922;2022-08-19T08:09:30;9.30;;;5.60;;
61696;SDS011;47610;52.252;20.922;2022-08-19T08:12:16;12.40;;;6.00;;
61696;SDS011;47610;52.252;20.922;2022-08-19T08:15:05;13.70;;;5.70;;
61696;SDS011;47610;52.252;20.922;2022-08-19T08:17:51;11.30;;;6.20;;
61696;SDS011;47610;52.252;20.922;2022-08-19T08:20:36;7.10;;;4.90;;
61696;SDS011;47610;52.252;20.922;2022-08-19T08:23:22;9.50;;;4.80;;
61696;SDS011;47610;52.252;20.922;2022-08-19T08:26:09;11.20;;;5.70;;
61696;SDS011;47610;52.252;20.922;2022-08-19T08:28:54;17.00;;;5.20;;
61696;SDS011;47610;52.252;20.922;2022-08-19T08:31:40;12.90;;;5.30;;
61696;SDS011;47610;52.252;20.922;2022-08-19T08:34:26;11.10;;;5.20;;
61696;SDS011;47610;52.252;20.922;2022-08-19T08:37:12;9.30;;;5.20;;
61696;SDS011;47610;52.252;20.922;2022-08-19T08:39:57;10.00;;;5.20;;
61696;SDS011;47610;52.252;20.922;2022-08-19T08:42:43;11.60;;;5.40;;
61696;SDS011;47610;52.252;20.922;2022-08-19T08:45:30;10.30;;;5.20;;
61696;SDS011;47610;52.252;20.922;2022-08-19T08:48:19;10.40;;;5.10;;
61696;SDS011;47610;52.252;20.922;2022-08-19T08:51:07;20.60;;;6.20;;
61696;SDS011;47610;52.252;20.922;2022-08-19T08:53:54;7.30;;;5.70;;
61696;SDS011;47610;52.252;20.922;2022-08-19T08:56:41;10.70;;;5.30;;
61696;SDS011;47610;52.252;20.922;2022-08-19T08:59:28;8.40;;;4.80;;
61696;SDS011;47610;52.252;20.922;2022-08-19T09:02:14;8.70;;;4.70;;
61696;SDS011;47610;52.252;20.922;2022-08-19T09:05:01;10.30;;;5.10;;
61696;SDS011;47610;52.252;20.922;2022-08-19T09:07:50;6.90;;;4.50;;
61696;SDS011;47610;52.252;20.922;2022-08-19T09:10:40;10.70;;;5.10;;
61696;SDS011;47610;52.252;20.922;2022-08-19T09:13:28;10.70;;;4.90;;
61696;SDS011;47610;52.252;20.922;2022-08-19T09:16:18;10.80;;;4.50;;
61696;SDS011;47610;52.252;20.922;2022-08-19T09:19:05;10.20;;;4.70;;
61696;SDS011;47610;52.252;20.922;2022-08-19T09:21:52;12.00;;;4.70;;
61696;SDS011;47610;52.252;20.922;2022-08-19T09:24:37;11.90;;;4.50;;
61696;SDS011;47610;52.252;20.922;2022-08-19T09:27:23;7.70;;;4.70;;
61696;SDS011;47610;52.252;20.922;2022-08-19T09:30:10;12.30;;;4.00;;
61696;SDS011;47610;52.252;20.922;2022-08-19T09:32:56;7.90;;;4.10;;
61696;SDS011;47610;52.252;20.922;2022-08-19T09:35:41;7.40;;;4.20;;
61696;SDS011;47610;52.252;20.922;2022-08-19T09:38:27;9.30;;;3.70;;
61696;SDS011;47610;52.252;20.922;2022-08-19T09:41:14;10.90;;;3.70;;
61696;SDS011;47610;52.252;20.922;2022-08-19T09:43:59;8.30;;;3.80;;
61696;SDS011;47610;52.252;20.922;2022-08-19T09:46:45;8.00;;;3.80;;
61696;SDS011;47610;52.252;20.922;2022-08-19T09:49:30;9.00;;;4.20;;
61696;SDS011;47610;52.252;20.922;2022-08-19T09:52:17;7.30;;;4.10;;
61696;SDS011;47610;52.252;20.922;2022-08-19T09:55:02;14.50;;;4.30;;
61696;SDS011;47610;52.252;20.922;2022-08-19T09:57:48;9.60;;;4.30;;
61696;SDS011;47610;52.252;20.922;2022-08-19T10:00:33;7.10;;;4.20;;
61696;SDS011;47610;52.252;20.922;2022-08-19T10:03:18;11.80;;;4.30;;
61696;SDS011;47610;52.252;20.922;2022-08-19T10:06:04;8.90;;;4.20;;
61696;SDS011;47610;52.252;20.922;2022-08-19T10:08:51;11.20;;;4.40;;
61696;SDS011;47610;52.252;20.922;2022-08-19T10:11:39;11.20;;;4.60;;
61696;SDS011;47610;52.252;20.922;2022-08-19T10:14:25;12.10;;;4.70;;
61696;SDS011;47610;52.252;20.922;2022-08-19T10:17:10;10.00;;;3.90;;
61696;SDS011;47610;52.252;20.922;2022-08-19T10:19:55;8.30;;;4.60;;
61696;SDS011;47610;52.252;20.922;2022-08-19T10:22:41;11.60;;;4.50;;
61696;SDS011;47610;52.252;20.922;2022-08-19T10:25:27;8.20;;;4.80;;
61696;SDS011;47610;52.252;20.922;2022-08-19T10:28:12;11.60;;;4.90;;
61696;SDS011;47610;52.252;20.922;2022-08-19T10:31:01;10.80;;;4.60;;
61696;SDS011;47610;52.252;20.922;2022-08-19T10:33:48;11.50;;;4.60;;
61696;SDS011;47610;52.252;20.922;2022-08-19T10:36:34;11.30;;;4.70;;
61696;SDS011;47610;52.252;20.922;2022-08-19T10:39:20;13.40;;;4.50;;
61696;SDS011;47610;52.252;20.922;2022-08-19T10:42:07;10.10;;;4.10;;
61696;SDS011;47610;52.252;20.922;2022-08-19T10:44:52;8.90;;;4.20;;
61696;SDS011;47610;52.252;20.922;2022-08-19T10:47:38;11.30;;;4.80;;
61696;SDS011;47610;52.252;20.922;2022-08-19T10:50:23;9.70;;;4.80;;
61696;SDS011;47610;52.252;20.922;2022-08-19T10:53:09;11.30;;;4.80;;
61696;SDS011;47610;52.252;20.922;2022-08-19T10:55:55;11.20;;;5.00;;
61696;SDS011;47610;52.252;20.922;2022-08-19T10:58:40;12.20;;;4.70;;
61696;SDS011;47610;52.252;20.922;2022-08-19T11:01:25;8.10;;;4.70;;
61696;SDS011;47610;52.252;20.922;2022-08-19T11:04:12;11.80;;;5.30;;
61696;SDS011;47610;52.252;20.922;2022-08-19T11:06:57;8.30;;;4.70;;
61696;SDS011;47610;52.252;20.922;2022-08-19T11:09:42;10.50;;;5.10;;
61696;SDS011;47610;52.252;20.922;2022-08-19T11:12:30;10.60;;;5.90;;
61696;SDS011;47610;52.252;20.922;2022-08-19T11:15:15;10.20;;;4.90;;
61696;SDS011;47610;52.252;20.922;2022-08-19T11:18:00;11.20;;;4.70;;
61696;SDS011;47610;52.252;20.922;2022-08-19T11:20:46;9.90;;;4.60;;
61696;SDS011;47610;52.252;20.922;2022-08-19T11:23:31;12.20;;;4.40;;
61696;SDS011;47610;52.252;20.922;2022-08-19T11:26:16;10.60;;;5.40;;
61696;SDS011;47610;52.252;20.922;2022-08-19T11:29:02;8.30;;;4.40;;
61696;SDS011;47610;52.252;20.922;2022-08-19T11:31:50;7.90;;;5.00;;
61696;SDS011;47610;52.252;20.922;2022-08-19T11:34:35;11.20;;;5.10;;
61696;SDS011;47610;52.252;20.922;2022-08-19T11:37:21;10.20;;;5.10;;
61696;SDS011;47610;52.252;20.922;2022-08-19T11:40:08;10.50;;;5.30;;
61696;SDS011;47610;52.252;20.922;2022-08-19T11:42:53;11.70;;;5.50;;
61696;SDS011;47610;52.252;20.922;2022-08-19T11:45:39;22.40;;;15.30;;
61696;SDS011;47610;52.252;20.922;2022-08-19T11:48:24;6.60;;;5.50;;
61696;SDS011;47610;52.252;20.922;2022-08-19T11:51:11;9.90;;;4.50;;
61696;SDS011;47610;52.252;20.922;2022-08-19T11:53:57;8.90;;;5.10;;
61696;SDS011;47610;52.252;20.922;2022-08-19T11:56:44;9.80;;;5.10;;
61696;SDS011;47610;52.252;20.922;2022-08-19T11:59:30;7.10;;;4.70;;
61696;SDS011;47610;52.252;20.922;2022-08-19T12:02:15;12.10;;;4.80;;
61696;SDS011;47610;52.252;20.922;2022-08-19T12:05:01;10.40;;;4.80;;
61696;SDS011;47610;52.252;20.922;2022-08-19T12:07:46;9.40;;;5.00;;
61696;SDS011;47610;52.252;20.922;2022-08-19T12:10:31;10.40;;;4.50;;
61696;SDS011;47610;52.252;20.922;2022-08-19T12:13:17;11.10;;;4.60;;
61696;SDS011;47610;52.252;20.922;2022-08-19T12:16:08;9.60;;;4.70;;
61696;SDS011;47610;52.252;20.922;2022-08-19T12:18:54;8.40;;;4.40;;
61696;SDS011;47610;52.252;20.922;2022-08-19T12:21:39;11.00;;;5.10;;
61696;SDS011;47610;52.252;20.922;2022-08-19T12:24:25;10.50;;;5.60;;
61696;SDS011;47610;52.252;20.922;2022-08-19T12:27:11;8.80;;;4.70;;
61696;SDS011;47610;52.252;20.922;2022-08-19T12:29:56;16.70;;;10.00;;
61696;SDS011;47610;52.252;20.922;2022-08-19T12:32:42;10.90;;;4.80;;
61696;SDS011;47610;52.252;20.922;2022-08-19T12:35:27;10.50;;;4.70;;
61696;SDS011;47610;52.252;20.922;2022-08-19T12:38:14;7.70;;;4.20;;
61696;SDS011;47610;52.252;20.922;2022-08-19T12:41:01;14.50;;;5.20;;
61696;SDS011;47610;52.252;20.922;2022-08-19T12:43:46;13.80;;;5.00;;
61696;SDS011;47610;52.252;20.922;2022-08-19T12:46:31;11.20;;;4.80;;
61696;SDS011;47610;52.252;20.922;2022-08-19T12:49:17;8.60;;;4.90;;
61696;SDS011;47610;52.252;20.922;2022-08-19T12:52:04;11.10;;;5.10;;
61696;SDS011;47610;52.252;20.922;2022-08-19T12:54:50;8.00;;;4.60;;
61696;SDS011;47610;52.252;20.922;2022-08-19T12:57:36;9.00;;;4.40;;
61696;SDS011;47610;52.252;20.922;2022-08-19T13:00:22;8.00;;;4.80;;
61696;SDS011;47610;52.252;20.922;2022-08-19T13:03:09;13.10;;;4.50;;
61696;SDS011;47610;52.252;20.922;2022-08-19T13:05:54;12.00;;;5.20;;
61696;SDS011;47610;52.252;20.922;2022-08-19T13:08:40;13.70;;;5.20;;
61696;SDS011;47610;52.252;20.922;2022-08-19T13:11:25;12.30;;;5.30;;
61696;SDS011;47610;52.252;20.922;2022-08-19T13:14:10;12.40;;;5.00;;
61696;SDS011;47610;52.252;20.922;2022-08-19T13:16:57;12.00;;;5.20;;
61696;SDS011;47610;52.252;20.922;2022-08-19T13:19:42;8.50;;;4.60;;
61696;SDS011;47610;52.252;20.922;2022-08-19T13:22:28;13.80;;;4.50;;
61696;SDS011;47610;52.252;20.922;2022-08-19T13:25:13;14.10;;;4.70;;
61696;SDS011;47610;52.252;20.922;2022-08-19T13:27:58;13.40;;;5.20;;
61696;SDS011;47610;52.252;20.922;2022-08-19T13:30:47;11.50;;;5.20;;
61696;SDS011;47610;52.252;20.922;2022-08-19T13:33:32;7.70;;;4.50;;
61696;SDS011;47610;52.252;20.922;2022-08-19T13:36:18;16.10;;;5.10;;
61696;SDS011;47610;52.252;20.922;2022-08-19T13:39:03;14.10;;;5.10;;
61696;SDS011;47610;52.252;20.922;2022-08-19T13:41:49;8.90;;;4.90;;
61696;SDS011;47610;52.252;20.922;2022-08-19T13:44:34;10.90;;;4.90;;
61696;SDS011;47610;52.252;20.922;2022-08-19T13:47:20;10.00;;;4.60;;
61696;SDS011;47610;52.252;20.922;2022-08-19T13:50:06;9.70;;;4.80;;
61696;SDS011;47610;52.252;20.922;2022-08-19T13:52:53;17.50;;;4.40;;
61696;SDS011;47610;52.252;20.922;2022-08-19T13:55:39;9.10;;;5.00;;
61696;SDS011;47610;52.252;20.922;2022-08-19T13:58:25;8.80;;;4.70;;
61696;SDS011;47610;52.252;20.922;2022-08-19T14:01:11;9.10;;;4.80;;
61696;SDS011;47610;52.252;20.922;2022-08-19T14:03:56;11.80;;;4.90;;
61696;SDS011;47610;52.252;20.922;2022-08-19T14:06:41;14.50;;;4.50;;
61696;SDS011;47610;52.252;20.922;2022-08-19T14:09:26;8.40;;;4.40;;
61696;SDS011;47610;52.252;20.922;2022-08-19T14:12:11;8.20;;;4.00;;
61696;SDS011;47610;52.252;20.922;2022-08-19T14:14:56;10.50;;;4.80;;
61696;SDS011;47610;52.252;20.922;2022-08-19T14:17:42;6.30;;;4.10;;
61696;SDS011;47610;52.252;20.922;2022-08-19T14:20:27;9.70;;;4.30;;
61696;SDS011;47610;52.252;20.922;2022-08-19T14:23:13;7.80;;;4.30;;
61696;SDS011;47610;52.252;20.922;2022-08-19T14:26:06;12.70;;;4.30;;
61696;SDS011;47610;52.252;20.922;2022-08-19T14:28:51;8.00;;;3.90;;
61696;SDS011;47610;52.252;20.922;2022-08-19T14:31:38;10.30;;;4.50;;
61696;SDS011;47610;52.252;20.922;2022-08-19T14:34:24;6.70;;;3.90;;
61696;SDS011;47610;52.252;20.922;2022-08-19T14:37:10;8.70;;;4.10;;
61696;SDS011;47610;52.252;20.922;2022-08-19T14:39:55;7.10;;;3.60;;
61696;SDS011;47610;52.252;20.922;2022-08-19T14:42:41;10.60;;;4.00;;
61696;SDS011;47610;52.252;20.922;2022-08-19T14:45:27;11.30;;;3.50;;
61696;SDS011;47610;52.252;20.922;2022-08-19T14:48:13;11.50;;;4.00;;
61696;SDS011;47610;52.252;20.922;2022-08-19T14:50:58;12.50;;;4.00;;
61696;SDS011;47610;52.252;20.922;2022-08-19T14:53:44;6.40;;;3.70;;
61696;SDS011;47610;52.252;20.922;2022-08-19T14:56:30;13.80;;;4.30;;
61696;SDS011;47610;52.252;20.922;2022-08-19T14:59:16;8.60;;;5.10;;
61696;SDS011;47610;52.252;20.922;2022-08-19T15:02:01;11.80;;;4.00;;
61696;SDS011;47610;52.252;20.922;2022-08-19T15:04:47;10.90;;;3.80;;
61696;SDS011;47610;52.252;20.922;2022-08-19T15:07:32;13.80;;;4.20;;
61696;SDS011;47610;52.252;20.922;2022-08-19T15:10:17;7.60;;;3.40;;
61696;SDS011;47610;52.252;20.922;2022-08-19T15:13:03;10.20;;;3.40;;
61696;SDS011;47610;52.252;20.922;2022-08-19T15:15:48;11.40;;;3.80;;
61696;SDS011;47610;52.252;20.922;2022-08-19T15:18:34;7.90;;;3.80;;
61696;SDS011;47610;52.252;20.922;2022-08-19T15:21:20;8.50;;;3.00;;
61696;SDS011;47610;52.252;20.922;2022-08-19T15:24:06;6.50;;;3.50;;
61696;SDS011;47610;52.252;20.922;2022-08-19T15:26:52;8.50;;;4.10;;
61696;SDS011;47610;52.252;20.922;2022-08-19T15:29:37;8.10;;;3.50;;
61696;SDS011;47610;52.252;20.922;2022-08-19T15:32:23;17.60;;;3.50;;
61696;SDS011;47610;52.252;20.922;2022-08-19T15:35:08;6.40;;;3.50;;
61696;SDS011;47610;52.252;20.922;2022-08-19T15:37:53;9.30;;;3.60;;
61696;SDS011;47610;52.252;20.922;2022-08-19T15:40:39;8.90;;;3.50;;
61696;SDS011;47610;52.252;20.922;2022-08-19T15:43:24;12.10;;;3.90;;
61696;SDS011;47610;52.252;20.922;2022-08-19T15:46:09;12.20;;;3.50;;
61696;SDS011;47610;52.252;20.922;2022-08-19T15:48:56;12.70;;;4.20;;
61696;SDS011;47610;52.252;20.922;2022-08-19T15:51:43;15.90;;;9.20;;
61696;SDS011;47610;52.252;20.922;2022-08-19T15:54:28;8.40;;;4.10;;
61696;SDS011;47610;52.252;20.922;2022-08-19T15:57:14;13.30;;;3.90;;
61696;SDS011;47610;52.252;20.922;2022-08-19T15:59:59;7.90;;;3.70;;
61696;SDS011;47610;52.252;20.922;2022-08-19T16:02:45;11.20;;;3.50;;
61696;SDS011;47610;52.252;20.922;2022-08-19T16:05:30;9.40;;;3.40;;
61696;SDS011;47610;52.252;20.922;2022-08-19T16:08:16;7.90;;;3.70;;
61696;SDS011;47610;52.252;20.922;2022-08-19T16:11:01;7.40;;;3.50;;
61696;SDS011;47610;52.252;20.922;2022-08-19T16:13:47;9.70;;;4.10;;
61696;SDS011;47610;52.252;20.922;2022-08-19T16:16:33;5.30;;;3.40;;